createdAt,value
2022-08-03T00:01:37.962Z,68.24
2022-08-03T00:04:08.655Z,68.97
2022-08-03T00:06:37.258Z,69.83
2022-08-03T00:09:05.809Z,70.33
2022-08-03T00:11:33.567Z,70.91
2022-08-03T00:14:01.367Z,71.93
2022-08-03T00:16:28.887Z,71.96
2022-08-03T00:18:56.212Z,71.66
2022-08-03T00:21:23.689Z,70.67
2022-08-03T00:23:52.877Z,70.92
2022-08-03T00:26:21.222Z,71.90
2022-08-03T00:28:49.427Z,71.14
2022-08-03T00:31:16.904Z,71.10
2022-08-03T00:34:03.484Z,71.89
2022-08-03T00:36:31.580Z,71.44
2022-08-03T00:38:58.903Z,71.08
2022-08-03T00:41:26.343Z,70.47
2022-08-03T00:43:53.715Z,69.86
2022-08-03T00:46:22.481Z,69.58
2022-08-03T00:48:51.120Z,69.96
2022-08-03T00:51:20.104Z,70.54
2022-08-03T00:53:47.734Z,70.75
2022-08-03T00:56:16.484Z,70.83
2022-08-03T00:58:45.122Z,70.81
2022-08-03T01:01:13.186Z,70.88
2022-08-03T01:03:41.260Z,70.55
2022-08-03T01:06:18.899Z,70.51
2022-08-03T01:09:20.050Z,70.02
2022-08-03T01:12:01.812Z,69.83
2022-08-03T01:14:47.121Z,70.09
2022-08-03T01:17:23.213Z,70.32
2022-08-03T01:20:02.212Z,70.77
2022-08-03T01:22:57.791Z,70.63
2022-08-03T01:25:36.942Z,70.70
2022-08-03T01:28:28.931Z,70.81
2022-08-03T01:31:01.505Z,70.70
2022-08-03T01:33:37.210Z,70.87
2022-08-03T01:36:09.770Z,71.21
2022-08-03T01:38:43.164Z,72.16
2022-08-03T01:41:22.807Z,71.97
2022-08-03T01:44:26.756Z,72.46
2022-08-03T01:46:40.646Z,72.88
2022-08-03T01:49:17.237Z,73.09
2022-08-03T01:51:57.712Z,73.30
2022-08-03T01:54:37.784Z,73.69
2022-08-03T01:57:06.640Z,74.05
2022-08-03T01:59:36.583Z,73.90
2022-08-03T02:02:31.987Z,73.80
2022-08-03T02:04:55.725Z,74.22
2022-08-03T02:07:24.919Z,74.31
2022-08-03T02:09:54.353Z,73.22
2022-08-03T02:12:25.062Z,72.67
2022-08-03T02:14:54.124Z,72.56
2022-08-03T02:17:39.194Z,73.26
2022-08-03T02:20:09.933Z,73.52
2022-08-03T02:22:40.306Z,74.34
2022-08-03T02:25:09.583Z,73.72
2022-08-03T02:27:43.748Z,74.48
2022-08-03T02:30:13.271Z,74.51
2022-08-03T02:32:44.051Z,75.02
2022-08-03T02:35:13.510Z,75.33
2022-08-03T02:37:54.595Z,75.34
2022-08-03T02:40:24.192Z,74.41
2022-08-03T02:42:54.844Z,74.17
2022-08-03T02:45:25.173Z,74.56
2022-08-03T02:47:56.956Z,74.21
2022-08-03T02:50:26.312Z,74.11
2022-08-03T02:52:55.210Z,75.12
2022-08-03T02:55:23.982Z,75.29
2022-08-03T02:57:52.687Z,74.87
2022-08-03T03:00:27.861Z,74.88
2022-08-03T03:03:00.775Z,74.14
2022-08-03T03:05:52.795Z,74.84
2022-08-03T03:08:26.226Z,75.25
2022-08-03T03:10:58.240Z,74.75
2022-08-03T03:13:28.243Z,74.41
2022-08-03T03:15:57.734Z,73.64
2022-08-03T03:18:27.469Z,73.68
2022-08-03T03:20:56.318Z,74.08
2022-08-03T03:23:25.377Z,74.02
2022-08-03T03:25:53.363Z,73.88
2022-08-03T03:28:20.850Z,73.97
2022-08-03T03:30:52.638Z,74.45
2022-08-03T03:33:22.094Z,74.71
2022-08-03T03:35:51.598Z,74.32
2022-08-03T03:38:19.820Z,74.72
2022-08-03T03:40:47.603Z,74.88
2022-08-03T03:43:14.927Z,74.22
2022-08-03T03:45:43.210Z,73.96
2022-08-03T03:48:10.904Z,74.21
2022-08-03T03:50:41.016Z,74.54
2022-08-03T03:53:12.597Z,73.37
2022-08-03T03:56:01.661Z,74.16
2022-08-03T03:58:29.524Z,74.23
2022-08-03T04:00:56.941Z,73.86
2022-08-03T04:03:24.344Z,74.05
2022-08-03T04:06:10.564Z,74.56
2022-08-03T04:08:56.343Z,75.18
2022-08-03T04:11:43.443Z,75.19
2022-08-03T04:14:24.662Z,75.55
2022-08-03T04:16:57.289Z,75.63
2022-08-03T04:19:34.212Z,75.36
2022-08-03T04:22:10.600Z,74.89
2022-08-03T04:24:45.332Z,75.71
2022-08-03T04:27:15.344Z,75.98
2022-08-03T04:29:48.505Z,75.81
2022-08-03T04:32:17.046Z,76.48
2022-08-03T04:34:44.561Z,76.56
2022-08-03T04:37:14.982Z,75.57
2022-08-03T04:39:43.005Z,74.70
2022-08-03T04:42:12.704Z,73.88
2022-08-03T04:44:42.537Z,73.86
2022-08-03T04:49:38.359Z,72.50
2022-08-03T04:52:08.509Z,72.66
2022-08-03T04:54:50.955Z,73.16
2022-08-03T04:57:23.017Z,72.17
2022-08-03T05:00:01.340Z,71.77
2022-08-03T05:02:31.075Z,71.83
2022-08-03T05:04:58.760Z,70.94
2022-08-03T05:07:25.996Z,70.75
2022-08-03T05:10:01.853Z,71.31
2022-08-03T05:12:33.486Z,69.40
2022-08-03T05:15:01.841Z,68.99
2022-08-03T05:17:29.140Z,65.79
2022-08-03T05:19:57.074Z,64.43
2022-08-03T05:22:24.340Z,64.01
2022-08-03T05:24:51.592Z,64.10
2022-08-03T05:27:19.528Z,63.78
2022-08-03T05:29:48.068Z,63.38
2022-08-03T05:32:16.251Z,62.42
2022-08-03T05:34:44.024Z,62.53
2022-08-03T05:37:11.306Z,63.10
2022-08-03T05:39:38.555Z,64.25
2022-08-03T05:42:05.853Z,65.34
2022-08-03T05:44:33.074Z,65.61
2022-08-03T05:47:00.358Z,66.77
2022-08-03T05:49:27.701Z,65.66
2022-08-03T05:51:59.820Z,65.61
2022-08-03T05:54:56.268Z,66.35
2022-08-03T05:57:23.521Z,65.39
2022-08-03T05:59:55.724Z,63.99
2022-08-03T06:02:27.939Z,63.85
2022-08-03T06:04:55.343Z,63.85
2022-08-03T06:07:22.715Z,64.59
2022-08-03T06:10:34.410Z,63.59
2022-08-03T06:12:37.292Z,62.47
2022-08-03T06:15:05.270Z,62.18
2022-08-03T06:17:37.457Z,60.95
2022-08-03T06:20:06.225Z,61.16
2022-08-03T06:22:33.615Z,60.32
2022-08-03T06:25:04.850Z,60.85
2022-08-03T06:27:37.292Z,61.47
2022-08-03T06:30:05.486Z,59.86
2022-08-03T06:32:33.693Z,60.47
2022-08-03T06:35:01.089Z,58.90
2022-08-03T06:37:29.224Z,56.80
2022-08-03T06:39:56.525Z,56.58
2022-08-03T06:42:23.731Z,56.50
2022-08-03T06:44:52.509Z,56.78
2022-08-03T06:47:19.709Z,55.86
2022-08-03T06:50:12.284Z,55.55
2022-08-03T06:52:37.772Z,55.04
2022-08-03T06:55:06.930Z,55.41
2022-08-03T06:57:34.150Z,56.55
2022-08-03T07:00:10.411Z,56.09
2022-08-03T07:02:40.526Z,56.12
2022-08-03T07:05:09.739Z,56.12
2022-08-03T07:07:37.398Z,54.96
2022-08-03T07:10:06.160Z,56.21
2022-08-03T07:12:34.524Z,54.43
2022-08-03T07:15:03.572Z,56.19
2022-08-03T07:17:33.645Z,55.12
2022-08-03T07:20:01.986Z,53.77
2022-08-03T07:22:29.413Z,52.79
2022-08-03T07:24:57.046Z,51.95
2022-08-03T07:27:26.824Z,54.82
2022-08-03T07:29:55.224Z,52.95
2022-08-03T07:32:22.834Z,53.62
2022-08-03T07:34:50.206Z,54.41
2022-08-03T07:37:17.532Z,53.92
2022-08-03T07:39:44.949Z,53.41
2022-08-03T07:42:12.220Z,53.49
2022-08-03T07:44:39.945Z,51.71
2022-08-03T07:47:07.264Z,51.56
2022-08-03T07:49:41.174Z,50.21
2022-08-03T07:52:28.255Z,50.33
2022-08-03T07:54:55.878Z,50.09
2022-08-03T07:57:23.318Z,48.63
2022-08-03T08:00:01.748Z,48.21
2022-08-03T08:02:39.953Z,48.97
2022-08-03T08:05:07.774Z,48.30
2022-08-03T08:07:34.979Z,48.88
2022-08-03T08:10:02.206Z,47.81
2022-08-03T08:12:29.817Z,47.88
2022-08-03T08:14:57.431Z,47.09
2022-08-03T08:17:24.788Z,46.14
2022-08-03T08:19:53.362Z,47.70
2022-08-03T08:22:30.038Z,47.70
2022-08-03T08:25:48.913Z,45.80
2022-08-03T08:31:44.736Z,44.32
2022-08-03T08:34:12.096Z,42.38
2022-08-03T08:36:39.340Z,42.56
2022-08-03T08:39:06.566Z,41.56
2022-08-03T08:41:34.833Z,41.18
2022-08-03T08:44:04.439Z,40.85
2022-08-03T08:46:33.303Z,39.79
2022-08-03T08:49:03.810Z,41.18
2022-08-03T08:51:59.156Z,40.63
2022-08-03T08:54:25.960Z,38.90
2022-08-03T08:56:56.100Z,39.14
2022-08-03T08:59:24.928Z,38.75
2022-08-03T09:01:57.248Z,38.34
2022-08-03T09:04:25.209Z,38.92
2022-08-03T09:07:17.662Z,38.09
2022-08-03T09:10:11.745Z,38.49
2022-08-03T09:12:42.920Z,37.50
2022-08-03T09:15:28.136Z,37.42
2022-08-03T09:17:57.820Z,37.95
2022-08-03T09:20:26.816Z,37.25
2022-08-03T09:23:19.161Z,37.82
2022-08-03T09:25:59.793Z,37.43
2022-08-03T09:29:00.140Z,36.26
2022-08-03T09:31:38.097Z,35.65
2022-08-03T09:34:08.021Z,36.63
2022-08-03T09:36:43.435Z,37.95
2022-08-03T09:39:19.671Z,35.25
2022-08-03T09:42:07.895Z,36.35
2022-08-03T09:44:38.088Z,36.04
2022-08-03T09:47:06.603Z,37.29
2022-08-03T09:49:34.301Z,36.35
2022-08-03T09:52:33.284Z,35.14
2022-08-03T09:55:01.427Z,34.14
2022-08-03T09:57:30.779Z,34.88
2022-08-03T10:00:12.584Z,35.00
2022-08-03T10:02:41.883Z,33.31
2022-08-03T10:05:17.611Z,33.67
2022-08-03T10:07:50.565Z,34.01
2022-08-03T10:10:30.803Z,35.06
2022-08-03T10:13:00.254Z,34.08
2022-08-03T10:16:21.711Z,33.58
2022-08-03T10:18:15.113Z,33.05
2022-08-03T10:20:53.543Z,33.71
2022-08-03T10:23:22.792Z,32.33
2022-08-03T10:25:55.003Z,32.34
2022-08-03T10:28:22.489Z,32.85
2022-08-03T10:30:51.534Z,31.66
2022-08-03T10:33:49.906Z,31.34
2022-08-03T10:36:14.332Z,31.81
2022-08-03T10:38:47.795Z,30.82
2022-08-03T10:41:19.949Z,31.35
2022-08-03T10:44:17.738Z,31.79
2022-08-03T10:46:47.263Z,30.82
2022-08-03T10:49:33.950Z,31.87
2022-08-03T10:52:02.787Z,30.79
2022-08-03T10:55:01.011Z,29.39
2022-08-03T10:57:52.587Z,29.93
2022-08-03T11:00:28.061Z,29.89
2022-08-03T11:03:09.336Z,30.52
2022-08-03T11:05:44.958Z,30.24
2022-08-03T11:08:19.532Z,30.22
2022-08-03T11:10:48.053Z,29.61
2022-08-03T11:13:17.094Z,29.62
2022-08-03T11:15:46.701Z,28.13
2022-08-03T11:18:15.353Z,29.02
2022-08-03T11:20:50.007Z,30.98
2022-08-03T11:23:20.548Z,29.76
2022-08-03T11:26:23.221Z,30.37
2022-08-03T11:28:50.524Z,29.22
2022-08-03T11:31:47.993Z,28.89
2022-08-03T11:34:13.099Z,29.62
2022-08-03T11:37:18.113Z,29.18
2022-08-03T11:39:47.539Z,29.00
2022-08-03T11:42:27.129Z,29.65
2022-08-03T11:44:58.799Z,29.33
2022-08-03T11:47:30.029Z,28.46
2022-08-03T11:50:00.258Z,28.50
2022-08-03T11:52:34.404Z,29.45
2022-08-03T11:55:02.251Z,28.37
2022-08-03T11:59:16.469Z,29.04
2022-08-03T12:00:30.431Z,28.88
2022-08-03T12:03:06.953Z,29.05
2022-08-03T12:05:39.883Z,28.52
2022-08-03T12:08:09.396Z,28.79
2022-08-03T12:10:38.163Z,29.55
2022-08-03T12:13:56.730Z,28.17
2022-08-03T12:15:59.059Z,30.22
2022-08-03T12:18:26.449Z,29.40
2022-08-03T12:21:04.860Z,28.85
2022-08-03T12:23:34.859Z,29.00
2022-08-03T12:26:10.211Z,30.77
2022-08-03T12:28:38.563Z,29.89
2022-08-03T12:31:07.895Z,30.25
2022-08-03T12:34:03.258Z,29.31
2022-08-03T12:36:32.803Z,28.29
2022-08-03T12:39:06.060Z,27.97
2022-08-03T12:41:36.517Z,29.58
2022-08-03T12:44:05.926Z,29.31
2022-08-03T12:46:38.303Z,29.30
2022-08-03T12:49:18.653Z,30.64
2022-08-03T12:51:46.027Z,29.70
2022-08-03T12:54:18.501Z,29.52
2022-08-03T12:57:01.042Z,28.17
2022-08-03T12:59:49.853Z,29.32
2022-08-03T13:02:24.167Z,29.77
2022-08-03T13:04:53.968Z,29.46
2022-08-03T13:07:22.939Z,28.40
2022-08-03T13:09:54.417Z,28.64
2022-08-03T13:12:23.344Z,30.16
2022-08-03T13:14:55.301Z,29.28
2022-08-03T13:17:22.777Z,29.23
2022-08-03T13:19:50.563Z,29.21
2022-08-03T13:22:20.069Z,29.27
2022-08-03T13:24:50.020Z,29.48
2022-08-03T13:28:02.062Z,29.02
2022-08-03T13:30:05.137Z,28.47
2022-08-03T13:32:33.339Z,27.88
2022-08-03T13:35:02.928Z,29.39
2022-08-03T13:37:32.304Z,28.77
2022-08-03T13:40:04.492Z,28.54
2022-08-03T13:42:33.674Z,28.38
2022-08-03T13:45:01.755Z,28.16
2022-08-03T13:47:29.175Z,27.30
2022-08-03T13:50:01.845Z,26.71
2022-08-03T13:52:36.594Z,28.14
2022-08-03T13:55:06.417Z,27.40
2022-08-03T13:58:02.971Z,29.22
2022-08-03T14:00:28.498Z,28.09
2022-08-03T14:03:06.458Z,28.58
2022-08-03T14:05:35.829Z,27.52
2022-08-03T14:08:05.662Z,26.74
2022-08-03T14:10:38.415Z,25.64
2022-08-03T14:13:06.373Z,26.35
2022-08-03T14:15:37.205Z,25.42
2022-08-03T14:18:06.727Z,23.59
2022-08-03T14:20:46.968Z,22.42
2022-08-03T14:23:17.899Z,22.84
2022-08-03T14:25:51.505Z,21.21
2022-08-03T14:28:23.083Z,21.04
2022-08-03T14:30:54.626Z,20.48
2022-08-03T14:33:22.408Z,19.06
2022-08-03T14:35:50.363Z,18.37
2022-08-03T14:38:18.339Z,18.07
2022-08-03T14:40:45.799Z,16.31
2022-08-03T14:43:13.249Z,17.65
2022-08-03T14:45:40.845Z,17.42
2022-08-03T14:50:33.508Z,16.51
2022-08-03T14:50:56.662Z,15.78
2022-08-03T14:53:24.201Z,15.24
2022-08-03T14:55:52.945Z,17.21
2022-08-03T14:58:22.068Z,17.12
2022-08-03T15:00:51.682Z,15.53
2022-08-03T15:03:23.044Z,15.53
2022-08-03T15:05:55.415Z,15.70
2022-08-03T15:08:24.679Z,15.09
2022-08-03T15:10:53.096Z,15.43
2022-08-03T15:13:20.919Z,15.81
2022-08-03T15:15:49.794Z,15.28
2022-08-03T15:18:17.152Z,15.05
2022-08-03T15:20:46.278Z,14.28
2022-08-03T15:23:15.628Z,15.56
2022-08-03T15:26:06.570Z,15.09
2022-08-03T15:28:32.569Z,16.40
2022-08-03T15:31:00.403Z,15.11
2022-08-03T15:33:28.409Z,15.33
2022-08-03T15:35:56.568Z,15.09
2022-08-03T15:38:25.981Z,15.99
2022-08-03T15:40:55.048Z,14.63
2022-08-03T15:43:23.148Z,14.38
2022-08-03T15:46:12.833Z,15.14
2022-08-03T15:48:39.350Z,15.50
2022-08-03T15:51:07.498Z,14.77
2022-08-03T15:53:35.022Z,16.07
2022-08-03T15:56:09.431Z,15.06
2022-08-03T15:59:03.758Z,16.70
2022-08-03T16:01:26.816Z,16.05
2022-08-03T16:03:54.120Z,15.80
2022-08-03T16:06:35.343Z,16.83
2022-08-03T16:09:22.949Z,15.47
2022-08-03T16:11:53.967Z,17.23
2022-08-03T16:14:34.235Z,17.67
2022-08-03T16:17:05.322Z,14.98
2022-08-03T16:19:32.571Z,15.21
2022-08-03T16:22:00.847Z,16.93
2022-08-03T16:24:28.441Z,15.98
2022-08-03T16:26:56.642Z,16.32
2022-08-03T16:29:24.214Z,17.14
2022-08-03T16:31:52.791Z,20.73
2022-08-03T16:34:21.157Z,21.50
2022-08-03T16:36:48.598Z,24.22
2022-08-03T16:39:15.921Z,24.60
2022-08-03T16:41:54.078Z,26.02
2022-08-03T16:44:30.466Z,26.75
2022-08-03T16:46:58.821Z,27.36
2022-08-03T16:49:55.030Z,28.22
2022-08-03T16:52:13.790Z,29.61
2022-08-03T16:54:44.418Z,29.35
2022-08-03T16:57:55.787Z,29.42
2022-08-03T17:00:09.660Z,29.90
2022-08-03T17:02:37.875Z,30.29
2022-08-03T17:05:05.581Z,30.31
2022-08-03T17:07:32.897Z,30.30
2022-08-03T17:10:01.556Z,31.07
2022-08-03T17:12:29.086Z,32.16
2022-08-03T17:14:57.449Z,33.20
2022-08-03T17:17:47.646Z,32.83
2022-08-03T17:20:19.643Z,33.18
2022-08-03T17:22:54.125Z,33.42
2022-08-03T17:26:01.437Z,33.60
2022-08-03T17:28:48.299Z,33.93
2022-08-03T17:31:23.495Z,33.81
2022-08-03T17:34:01.638Z,33.73
2022-08-03T17:39:30.882Z,34.82
2022-08-03T17:42:05.305Z,34.09
2022-08-03T17:44:53.686Z,35.17
2022-08-03T17:47:21.679Z,35.09
2022-08-03T17:49:49.443Z,34.36
2022-08-03T17:52:24.509Z,33.89
2022-08-03T17:55:55.978Z,33.65
2022-08-03T17:58:13.717Z,33.92
2022-08-03T18:01:04.328Z,34.34
2022-08-03T18:03:59.762Z,34.42
2022-08-03T18:06:31.423Z,34.80
2022-08-03T18:09:04.783Z,34.74
2022-08-03T18:11:37.029Z,34.43
2022-08-03T18:14:19.824Z,34.51
2022-08-03T18:16:57.894Z,34.65
2022-08-03T18:20:02.766Z,34.97
2022-08-03T18:22:20.845Z,35.13
2022-08-03T18:24:52.329Z,35.09
2022-08-03T18:27:21.286Z,35.33
2022-08-03T18:29:50.573Z,35.21
2022-08-03T18:32:18.880Z,35.30
2022-08-03T18:34:53.369Z,35.57
2022-08-03T18:37:25.332Z,35.55
2022-08-03T18:39:58.007Z,35.91
2022-08-03T18:42:26.822Z,35.98
2022-08-03T18:44:57.516Z,36.19
2022-08-03T18:48:05.003Z,36.43
2022-08-03T18:50:49.498Z,36.52
2022-08-03T18:54:02.992Z,37.24
2022-08-03T18:56:31.654Z,36.77
2022-08-03T18:59:14.052Z,37.17
2022-08-03T19:01:57.706Z,37.40
2022-08-03T19:04:33.396Z,37.65
2022-08-03T19:07:06.976Z,37.92
2022-08-03T19:09:38.020Z,37.98
2022-08-03T19:12:28.145Z,37.61
2022-08-03T19:15:13.037Z,38.19
2022-08-03T19:17:52.958Z,38.17
2022-08-03T19:20:23.136Z,38.12
2022-08-03T19:22:56.001Z,38.62
2022-08-03T19:25:34.311Z,38.36
2022-08-03T19:28:06.276Z,38.40
2022-08-03T19:30:39.108Z,39.10
2022-08-03T19:33:09.253Z,39.14
2022-08-03T19:35:54.904Z,39.88
2022-08-03T19:38:28.465Z,40.62
2022-08-03T19:41:00.847Z,40.42
2022-08-03T19:43:53.513Z,40.59
2022-08-03T19:46:30.119Z,41.96
2022-08-03T19:49:15.422Z,42.31
2022-08-03T19:54:56.771Z,42.00
2022-08-03T19:57:27.128Z,41.64
2022-08-03T19:59:56.448Z,42.74
2022-08-03T20:02:27.229Z,43.16
2022-08-03T20:04:57.151Z,42.90
2022-08-03T20:07:25.930Z,43.37
2022-08-03T20:09:56.643Z,43.59
2022-08-03T20:12:29.019Z,43.52
2022-08-03T20:14:58.114Z,43.15
2022-08-03T20:20:18.543Z,43.48
2022-08-03T20:22:48.109Z,43.38
2022-08-03T20:25:20.671Z,43.99
2022-08-03T20:28:07.919Z,44.46
2022-08-03T20:30:44.446Z,44.83
2022-08-03T20:33:18.229Z,45.42
2022-08-03T20:35:48.944Z,45.34
2022-08-03T20:38:18.715Z,46.18
2022-08-03T20:40:47.556Z,45.29
2022-08-03T20:43:16.614Z,45.18
2022-08-03T20:46:00.051Z,45.86
2022-08-03T20:48:36.113Z,46.50
2022-08-03T20:51:19.778Z,47.11
2022-08-03T20:53:57.065Z,47.24
2022-08-03T20:56:32.007Z,47.49
2022-08-03T20:59:06.003Z,48.52
2022-08-03T21:01:36.244Z,48.10
2022-08-03T21:04:06.999Z,48.12
2022-08-03T21:06:53.234Z,47.77
2022-08-03T21:09:33.373Z,48.67
2022-08-03T21:12:05.029Z,47.93
2022-08-03T21:13:03.793Z,44.23
2022-08-03T21:13:09.285Z,41.62
2022-08-03T21:15:03.733Z,49.08
2022-08-03T21:17:41.477Z,48.92
2022-08-03T21:20:10.789Z,48.73
2022-08-03T21:22:41.311Z,49.62
2022-08-03T21:25:09.588Z,49.07
2022-08-03T21:27:37.295Z,49.29
2022-08-03T21:30:08.130Z,49.70
2022-08-03T21:32:36.350Z,49.66
2022-08-03T21:35:03.880Z,49.21
2022-08-03T21:37:31.086Z,49.19
2022-08-03T21:39:58.422Z,49.68
2022-08-03T21:42:25.764Z,49.90
2022-08-03T21:44:53.499Z,49.39
2022-08-03T21:47:22.525Z,49.90
2022-08-03T21:50:08.900Z,49.50
2022-08-03T21:52:42.691Z,49.91
2022-08-03T21:55:18.370Z,50.71
2022-08-03T21:57:52.852Z,51.58
2022-08-03T22:00:23.116Z,52.55
2022-08-03T22:02:57.237Z,51.89
2022-08-03T22:05:43.016Z,52.02
2022-08-03T22:08:13.624Z,52.70
2022-08-03T22:10:43.656Z,52.56
2022-08-03T22:13:13.279Z,52.34
2022-08-03T22:15:40.924Z,51.93
2022-08-03T22:18:08.173Z,51.87
2022-08-03T22:20:35.625Z,52.19
2022-08-03T22:23:06.324Z,53.08
2022-08-03T22:25:36.526Z,52.96
2022-08-03T22:28:12.022Z,53.81
2022-08-03T22:30:40.940Z,54.04
2022-08-03T22:33:11.182Z,54.21
2022-08-03T22:35:47.814Z,53.45
2022-08-03T22:38:17.254Z,54.16
2022-08-03T22:40:46.991Z,54.20
2022-08-03T22:43:14.320Z,55.08
2022-08-03T22:46:09.192Z,54.60
2022-08-03T22:48:35.913Z,55.19
2022-08-03T22:51:09.394Z,55.20
2022-08-03T22:53:37.076Z,55.44
2022-08-03T22:56:04.605Z,56.19
2022-08-03T22:58:31.827Z,56.52
2022-08-03T23:01:07.763Z,56.19
2022-08-03T23:03:59.712Z,56.98
2022-08-03T23:06:31.953Z,56.93
2022-08-03T23:08:59.441Z,57.02
2022-08-03T23:11:28.496Z,56.73
2022-08-03T23:13:58.778Z,56.68
2022-08-03T23:16:28.817Z,56.84
2022-08-03T23:18:59.536Z,56.74
2022-08-03T23:21:53.859Z,57.50
2022-08-03T23:24:29.850Z,58.50
2022-08-03T23:26:58.890Z,58.66
2022-08-03T23:29:29.174Z,60.43
2022-08-03T23:31:57.505Z,60.61
2022-08-03T23:34:44.510Z,60.07
2022-08-03T23:37:15.135Z,59.92
2022-08-03T23:39:47.133Z,60.27
2022-08-03T23:42:19.184Z,61.29
2022-08-03T23:44:47.246Z,61.58
2022-08-03T23:47:14.623Z,62.10
2022-08-03T23:49:41.941Z,61.42
2022-08-03T23:52:19.093Z,61.65
2022-08-03T23:55:13.076Z,61.20
2022-08-03T23:57:56.027Z,59.99
